AAL813 KLAS-KFLL
Flight info
| Callsign | AAL813 |
|---|---|
| Flight time | 3h 46m |
| Altitude | 37000 |
| Route | NIITZ4 SSKEE GUP TXO CIYAL MQP ARDIA LFK ZIROR LEV Y290 DOWRY TEEKY4 |
| Aircraft | B38M/M-SDE1FGHILORVWXY/HB1 |
Departure
| Time | 2026-05-05 15:29 |
|---|---|
| Airport | Harry Reid International Airport (KLAS) |
Arrival
| Time | 2026-05-05 19:16 |
|---|---|
| Airport | Fort Lauderdale Hollywood International Airport (KFLL) |
| Time | Latitude | Longitude | Altitude | Speed | Heading |
|---|---|---|---|---|---|
| 2026-05-05 15:03 | 36.08108 | -115.13723 | 2060 ft | 0 kts | 61° |
| 2026-05-05 15:13 | 36.08103 | -115.13734 | 2076 ft | 3 kts | 61° |
| 2026-05-05 15:13 | 36.08093 | -115.13754 | 2077 ft | 3 kts | 45° |
| 2026-05-05 15:14 | 36.08077 | -115.13766 | 2077 ft | 3 kts | 14° |
| 2026-05-05 15:14 | 36.08064 | -115.13768 | 2078 ft | 0 kts | 4° |
| 2026-05-05 15:17 | 36.08066 | -115.13770 | 2078 ft | 1 kts | 338° |
| 2026-05-05 15:17 | 36.08066 | -115.13775 | 2078 ft | 1 kts | 275° |
| 2026-05-05 15:17 | 36.08058 | -115.13781 | 2078 ft | 3 kts | 210° |
| 2026-05-05 15:18 | 36.08030 | -115.13796 | 2077 ft | 6 kts | 201° |
| 2026-05-05 15:18 | 36.07990 | -115.13825 | 2076 ft | 8 kts | 221° |
| 2026-05-05 15:18 | 36.07949 | -115.13874 | 2077 ft | 9 kts | 225° |
| 2026-05-05 15:18 | 36.07916 | -115.13914 | 2075 ft | 1 kts | 224° |
| 2026-05-05 15:20 | 36.07915 | -115.13915 | 2077 ft | 2 kts | 224° |
| 2026-05-05 15:20 | 36.07857 | -115.13931 | 2082 ft | 15 kts | 155° |
| 2026-05-05 15:20 | 36.07827 | -115.13798 | 2081 ft | 19 kts | 91° |
| 2026-05-05 15:20 | 36.07827 | -115.13621 | 2073 ft | 23 kts | 90° |
| 2026-05-05 15:21 | 36.07827 | -115.13409 | 2072 ft | 27 kts | 90° |
| 2026-05-05 15:21 | 36.07829 | -115.13161 | 2063 ft | 31 kts | 89° |
| 2026-05-05 15:21 | 36.07827 | -115.12887 | 2056 ft | 33 kts | 91° |
| 2026-05-05 15:21 | 36.07827 | -115.12594 | 2055 ft | 35 kts | 90° |
| 2026-05-05 15:22 | 36.07827 | -115.12289 | 2049 ft | 36 kts | 96° |
| 2026-05-05 15:22 | 36.07741 | -115.12137 | 2047 ft | 0 kts | 141° |
| 2026-05-05 15:28 | 36.07740 | -115.12137 | 2047 ft | 1 kts | 142° |
| 2026-05-05 15:28 | 36.07696 | -115.12125 | 2050 ft | 9 kts | 179° |
| 2026-05-05 15:28 | 36.07643 | -115.12144 | 2051 ft | 8 kts | 239° |
| 2026-05-05 15:28 | 36.07641 | -115.12221 | 2051 ft | 11 kts | 270° |
| 2026-05-05 15:29 | 36.07641 | -115.12604 | 2058 ft | 82 kts | 270° |
| 2026-05-05 15:29 | 36.07642 | -115.13604 | 2084 ft | 148 kts | 270° |
| 2026-05-05 15:29 | 36.07649 | -115.15088 | 2257 ft | 189 kts | 270° |
| 2026-05-05 15:29 | 36.07668 | -115.16720 | 3214 ft | 184 kts | 269° |
| 2026-05-05 15:30 | 36.07680 | -115.18290 | 4140 ft | 189 kts | 268° |
| 2026-05-05 15:30 | 36.07670 | -115.19998 | 4621 ft | 208 kts | 267° |
| 2026-05-05 15:30 | 36.07486 | -115.21865 | 5038 ft | 230 kts | 259° |
| 2026-05-05 15:30 | 36.07185 | -115.23918 | 5474 ft | 251 kts | 250° |
| 2026-05-05 15:31 | 36.06282 | -115.25709 | 6399 ft | 253 kts | 222° |
| 2026-05-05 15:31 | 36.04743 | -115.26849 | 6940 ft | 268 kts | 199° |
| 2026-05-05 15:31 | 36.02960 | -115.27663 | 7632 ft | 277 kts | 200° |
| 2026-05-05 15:31 | 36.01142 | -115.28438 | 8007 ft | 276 kts | 188° |
| 2026-05-05 15:32 | 35.99259 | -115.28348 | 8975 ft | 275 kts | 165° |
| 2026-05-05 15:32 | 35.97521 | -115.27302 | 9747 ft | 282 kts | 142° |
| 2026-05-05 15:32 | 35.96010 | -115.25722 | 10515 ft | 291 kts | 140° |
| 2026-05-05 15:32 | 35.94428 | -115.24043 | 10926 ft | 310 kts | 139° |
| 2026-05-05 15:33 | 35.92758 | -115.22249 | 11424 ft | 324 kts | 139° |
| 2026-05-05 15:33 | 35.91203 | -115.20196 | 12110 ft | 330 kts | 123° |
| 2026-05-05 15:33 | 35.90005 | -115.17776 | 12955 ft | 333 kts | 122° |
| 2026-05-05 15:33 | 35.88784 | -115.15312 | 13698 ft | 338 kts | 122° |
| 2026-05-05 15:34 | 35.87572 | -115.12811 | 14373 ft | 343 kts | 118° |
| 2026-05-05 15:34 | 35.86844 | -115.10047 | 15006 ft | 348 kts | 97° |
| 2026-05-05 15:34 | 35.86853 | -115.07053 | 15646 ft | 353 kts | 87° |
| 2026-05-05 15:34 | 35.86995 | -115.04009 | 16265 ft | 357 kts | 87° |
| 2026-05-05 15:35 | 35.87150 | -115.00935 | 16879 ft | 362 kts | 86° |
| 2026-05-05 15:35 | 35.87314 | -114.97835 | 17501 ft | 365 kts | 86° |
| 2026-05-05 15:35 | 35.87484 | -114.94681 | 18102 ft | 369 kts | 86° |
| 2026-05-05 15:35 | 35.87655 | -114.91508 | 18640 ft | 373 kts | 86° |
| 2026-05-05 15:36 | 35.87830 | -114.88281 | 18847 ft | 378 kts | 86° |
| 2026-05-05 15:36 | 35.88004 | -114.85061 | 18913 ft | 377 kts | 86° |
| 2026-05-05 15:36 | 35.88177 | -114.81832 | 18923 ft | 377 kts | 87° |
| 2026-05-05 15:36 | 35.88348 | -114.78641 | 18927 ft | 377 kts | 87° |
| 2026-05-05 15:37 | 35.88520 | -114.75416 | 18919 ft | 377 kts | 87° |
| 2026-05-05 15:37 | 35.88690 | -114.72197 | 18910 ft | 377 kts | 87° |
| 2026-05-05 15:37 | 35.88860 | -114.68972 | 18903 ft | 377 kts | 87° |
| 2026-05-05 15:37 | 35.89029 | -114.65750 | 18899 ft | 377 kts | 87° |
| 2026-05-05 15:38 | 35.89197 | -114.62519 | 18887 ft | 377 kts | 87° |
| 2026-05-05 15:38 | 35.89364 | -114.59289 | 18873 ft | 377 kts | 87° |
| 2026-05-05 15:38 | 35.89531 | -114.56062 | 18860 ft | 377 kts | 87° |
| 2026-05-05 15:38 | 35.89680 | -114.52828 | 18844 ft | 377 kts | 91° |
| 2026-05-05 15:39 | 35.89645 | -114.49598 | 18845 ft | 377 kts | 92° |
| 2026-05-05 15:39 | 35.89615 | -114.46364 | 18830 ft | 377 kts | 92° |
| 2026-05-05 15:39 | 35.89594 | -114.43123 | 18822 ft | 378 kts | 92° |
| 2026-05-05 15:39 | 35.89578 | -114.39888 | 18815 ft | 378 kts | 91° |
| 2026-05-05 15:40 | 35.89562 | -114.36647 | 18816 ft | 378 kts | 92° |
| 2026-05-05 15:40 | 35.89546 | -114.33403 | 18816 ft | 378 kts | 92° |
| 2026-05-05 15:40 | 35.89529 | -114.30165 | 18816 ft | 378 kts | 92° |
| 2026-05-05 15:40 | 35.89511 | -114.26917 | 18815 ft | 378 kts | 92° |
| 2026-05-05 15:41 | 35.89492 | -114.23677 | 18814 ft | 378 kts | 92° |
| 2026-05-05 15:41 | 35.89473 | -114.20434 | 18836 ft | 380 kts | 92° |
| 2026-05-05 15:41 | 35.89453 | -114.17222 | 19356 ft | 379 kts | 92° |
| 2026-05-05 15:41 | 35.89432 | -114.13910 | 19864 ft | 383 kts | 92° |
| 2026-05-05 15:42 | 35.89409 | -114.10612 | 20396 ft | 386 kts | 92° |
| 2026-05-05 15:42 | 35.89386 | -114.07327 | 20881 ft | 390 kts | 92° |
| 2026-05-05 15:42 | 35.89361 | -114.03926 | 21385 ft | 393 kts | 92° |
| 2026-05-05 15:42 | 35.89335 | -114.00544 | 21879 ft | 396 kts | 92° |
| 2026-05-05 15:43 | 35.89309 | -113.97178 | 22373 ft | 400 kts | 92° |
| 2026-05-05 15:43 | 35.89281 | -113.93738 | 22847 ft | 403 kts | 92° |
| 2026-05-05 15:43 | 35.89251 | -113.90268 | 23330 ft | 406 kts | 92° |
| 2026-05-05 15:43 | 35.89220 | -113.86771 | 23718 ft | 410 kts | 93° |
| 2026-05-05 15:44 | 35.89188 | -113.83246 | 24095 ft | 413 kts | 93° |
| 2026-05-05 15:44 | 35.89155 | -113.79694 | 24459 ft | 416 kts | 93° |
| 2026-05-05 15:44 | 35.89120 | -113.76108 | 24814 ft | 420 kts | 93° |
| 2026-05-05 15:44 | 35.89085 | -113.72497 | 25178 ft | 423 kts | 94° |
| 2026-05-05 15:45 | 35.89047 | -113.68804 | 25553 ft | 426 kts | 94° |
| 2026-05-05 15:45 | 35.89008 | -113.65132 | 25911 ft | 430 kts | 94° |
| 2026-05-05 15:45 | 35.88969 | -113.61481 | 26249 ft | 433 kts | 94° |
| 2026-05-05 15:45 | 35.88929 | -113.57755 | 26605 ft | 437 kts | 94° |
| 2026-05-05 15:46 | 35.88876 | -113.53993 | 26902 ft | 440 kts | 97° |
| 2026-05-05 15:46 | 35.88446 | -113.50283 | 27228 ft | 438 kts | 105° |
| 2026-05-05 15:46 | 35.87908 | -113.46568 | 27513 ft | 442 kts | 104° |
| 2026-05-05 15:46 | 35.87375 | -113.42834 | 27857 ft | 444 kts | 105° |
| 2026-05-05 15:47 | 35.86834 | -113.39058 | 28122 ft | 449 kts | 105° |
| 2026-05-05 15:47 | 35.86466 | -113.36490 | 28321 ft | 451 kts | 105° |
| 2026-05-05 15:47 | 35.85742 | -113.31448 | 28797 ft | 453 kts | 105° |
| 2026-05-05 15:47 | 35.85187 | -113.27601 | 29000 ft | 458 kts | 106° |
| 2026-05-05 15:48 | 35.84628 | -113.23729 | 29314 ft | 461 kts | 106° |
| 2026-05-05 15:48 | 35.84063 | -113.19823 | 29583 ft | 464 kts | 106° |
| 2026-05-05 15:48 | 35.83492 | -113.15892 | 29870 ft | 467 kts | 106° |
| 2026-05-05 15:48 | 35.82916 | -113.11935 | 30090 ft | 471 kts | 107° |
| 2026-05-05 15:49 | 35.82336 | -113.07959 | 30317 ft | 473 kts | 107° |
| 2026-05-05 15:49 | 35.81751 | -113.03958 | 30542 ft | 476 kts | 107° |
| 2026-05-05 15:49 | 35.81162 | -112.99936 | 30767 ft | 479 kts | 107° |
| 2026-05-05 15:49 | 35.80567 | -112.95889 | 30981 ft | 481 kts | 107° |
| 2026-05-05 15:50 | 35.79969 | -112.91824 | 31194 ft | 484 kts | 108° |
| 2026-05-05 15:50 | 35.79366 | -112.87742 | 31426 ft | 486 kts | 108° |
| 2026-05-05 15:50 | 35.78758 | -112.83633 | 31624 ft | 488 kts | 108° |
| 2026-05-05 15:50 | 35.78147 | -112.79512 | 31836 ft | 491 kts | 108° |
| 2026-05-05 15:51 | 35.77530 | -112.75364 | 32028 ft | 494 kts | 108° |
| 2026-05-05 15:51 | 35.76908 | -112.71198 | 32232 ft | 496 kts | 108° |
| 2026-05-05 15:51 | 35.76282 | -112.67009 | 32434 ft | 499 kts | 109° |
| 2026-05-05 15:51 | 35.75652 | -112.62801 | 32640 ft | 501 kts | 109° |
| 2026-05-05 15:52 | 35.75017 | -112.58572 | 32829 ft | 504 kts | 109° |
| 2026-05-05 15:52 | 35.74377 | -112.54325 | 33024 ft | 506 kts | 109° |
| 2026-05-05 15:52 | 35.73734 | -112.50064 | 33225 ft | 508 kts | 109° |
| 2026-05-05 15:52 | 35.73086 | -112.45783 | 33481 ft | 509 kts | 109° |
| 2026-05-05 15:53 | 35.72436 | -112.41496 | 33747 ft | 510 kts | 110° |
| 2026-05-05 15:53 | 35.71782 | -112.37200 | 33985 ft | 511 kts | 110° |
| 2026-05-05 15:53 | 35.71136 | -112.32956 | 34215 ft | 512 kts | 110° |
| 2026-05-05 15:53 | 35.70479 | -112.28657 | 34472 ft | 511 kts | 110° |
| 2026-05-05 15:54 | 35.69822 | -112.24367 | 34720 ft | 511 kts | 110° |
| 2026-05-05 15:54 | 35.69161 | -112.20068 | 34981 ft | 511 kts | 110° |
| 2026-05-05 15:54 | 35.68501 | -112.15779 | 35218 ft | 510 kts | 110° |
| 2026-05-05 15:54 | 35.67840 | -112.11494 | 35451 ft | 510 kts | 110° |
| 2026-05-05 15:55 | 35.67178 | -112.07214 | 35683 ft | 509 kts | 110° |
| 2026-05-05 15:55 | 35.66515 | -112.02943 | 35905 ft | 509 kts | 110° |
| 2026-05-05 15:55 | 35.65851 | -111.98670 | 36127 ft | 508 kts | 110° |
| 2026-05-05 15:55 | 35.65188 | -111.94409 | 36331 ft | 507 kts | 110° |
| 2026-05-05 15:56 | 35.64523 | -111.90151 | 36513 ft | 507 kts | 110° |
| 2026-05-05 15:56 | 35.63857 | -111.85893 | 36684 ft | 507 kts | 110° |
| 2026-05-05 15:56 | 35.63297 | -111.81604 | 36841 ft | 514 kts | 102° |
| 2026-05-05 15:57 | 35.62917 | -111.72796 | 36845 ft | 515 kts | 101° |
| 2026-05-05 15:57 | 35.62542 | -111.64002 | 36843 ft | 516 kts | 101° |
| 2026-05-05 15:58 | 35.62164 | -111.55201 | 36830 ft | 516 kts | 101° |
| 2026-05-05 15:58 | 35.61780 | -111.46385 | 36831 ft | 517 kts | 101° |
| 2026-05-05 15:59 | 35.61389 | -111.37560 | 36831 ft | 517 kts | 101° |
| 2026-05-05 15:59 | 35.60992 | -111.28737 | 36832 ft | 518 kts | 102° |
| 2026-05-05 16:00 | 35.60587 | -111.19895 | 36840 ft | 519 kts | 102° |
| 2026-05-05 16:00 | 35.60175 | -111.11046 | 36836 ft | 519 kts | 102° |
| 2026-05-05 16:01 | 35.59757 | -111.02183 | 36846 ft | 520 kts | 102° |
| 2026-05-05 16:01 | 35.59331 | -110.93306 | 36845 ft | 521 kts | 102° |
| 2026-05-05 16:02 | 35.58898 | -110.84423 | 36837 ft | 521 kts | 102° |
| 2026-05-05 16:02 | 35.58458 | -110.75522 | 36835 ft | 522 kts | 102° |
| 2026-05-05 16:03 | 35.58087 | -110.68120 | 36835 ft | 522 kts | 102° |
| 2026-05-05 16:03 | 35.57560 | -110.57760 | 36841 ft | 524 kts | 102° |
| 2026-05-05 16:04 | 35.57099 | -110.48833 | 36838 ft | 524 kts | 102° |
| 2026-05-05 16:04 | 35.56707 | -110.41348 | 36830 ft | 525 kts | 102° |
| 2026-05-05 16:05 | 35.56232 | -110.32398 | 36818 ft | 525 kts | 102° |
| 2026-05-05 16:05 | 35.55749 | -110.23436 | 36833 ft | 526 kts | 102° |
| 2026-05-05 16:06 | 35.55264 | -110.14530 | 36820 ft | 526 kts | 102° |
| 2026-05-05 16:06 | 35.54767 | -110.05547 | 36832 ft | 528 kts | 102° |
| 2026-05-05 16:07 | 35.54263 | -109.96546 | 36825 ft | 529 kts | 102° |
| 2026-05-05 16:07 | 35.53748 | -109.87472 | 36832 ft | 530 kts | 102° |
| 2026-05-05 16:08 | 35.53233 | -109.78505 | 36822 ft | 530 kts | 102° |
| 2026-05-05 16:08 | 35.52701 | -109.69409 | 36833 ft | 532 kts | 102° |
| 2026-05-05 16:09 | 35.52171 | -109.60413 | 36816 ft | 532 kts | 102° |
| 2026-05-05 16:09 | 35.51628 | -109.51348 | 36825 ft | 533 kts | 102° |
| 2026-05-05 16:10 | 35.51078 | -109.42269 | 36841 ft | 534 kts | 102° |
| 2026-05-05 16:10 | 35.50521 | -109.33178 | 36899 ft | 535 kts | 102° |
| 2026-05-05 16:11 | 35.49957 | -109.24080 | 36927 ft | 535 kts | 102° |
| 2026-05-05 16:12 | 35.48806 | -109.05848 | 36958 ft | 536 kts | 102° |
| 2026-05-05 16:13 | 35.47030 | -108.83212 | 37040 ft | 531 kts | 107° |
| 2026-05-05 16:13 | 35.45826 | -108.74284 | 37043 ft | 531 kts | 108° |
| 2026-05-05 16:14 | 35.43363 | -108.56419 | 36944 ft | 532 kts | 108° |
| 2026-05-05 16:15 | 35.40870 | -108.38552 | 36811 ft | 532 kts | 108° |
| 2026-05-05 16:16 | 35.38346 | -108.20655 | 36823 ft | 533 kts | 108° |
| 2026-05-05 16:17 | 35.36431 | -108.07214 | 36910 ft | 535 kts | 108° |
| 2026-05-05 16:18 | 35.34498 | -107.93748 | 36978 ft | 536 kts | 108° |
| 2026-05-05 16:19 | 35.32546 | -107.80267 | 36970 ft | 536 kts | 108° |
| 2026-05-05 16:19 | 35.30568 | -107.66716 | 36937 ft | 543 kts | 108° |
| 2026-05-05 16:20 | 35.27872 | -107.48424 | 36830 ft | 550 kts | 108° |
| 2026-05-05 16:22 | 35.24434 | -107.25372 | 36810 ft | 552 kts | 108° |
| 2026-05-05 16:23 | 35.21644 | -107.06897 | 36908 ft | 553 kts | 107° |
| 2026-05-05 16:23 | 35.19529 | -106.93027 | 36996 ft | 554 kts | 107° |
| 2026-05-05 16:24 | 35.18110 | -106.83774 | 37011 ft | 554 kts | 107° |
| 2026-05-05 16:25 | 35.15965 | -106.69885 | 37011 ft | 554 kts | 107° |
| 2026-05-05 16:25 | 35.13804 | -106.56006 | 36996 ft | 554 kts | 107° |
| 2026-05-05 16:26 | 35.10902 | -106.37533 | 36921 ft | 551 kts | 107° |
| 2026-05-05 16:27 | 35.09440 | -106.28303 | 36885 ft | 555 kts | 107° |
| 2026-05-05 16:27 | 35.07967 | -106.19048 | 36843 ft | 556 kts | 107° |
| 2026-05-05 16:28 | 35.06486 | -106.09786 | 36833 ft | 556 kts | 107° |
| 2026-05-05 16:28 | 35.04996 | -106.00521 | 36832 ft | 556 kts | 107° |
| 2026-05-05 16:29 | 35.03501 | -105.91272 | 36840 ft | 556 kts | 107° |
| 2026-05-05 16:29 | 35.01997 | -105.82010 | 36819 ft | 556 kts | 107° |
| 2026-05-05 16:30 | 35.00486 | -105.72756 | 36832 ft | 557 kts | 107° |
| 2026-05-05 16:30 | 34.98967 | -105.63493 | 36819 ft | 556 kts | 107° |
| 2026-05-05 16:31 | 34.97452 | -105.54309 | 36815 ft | 557 kts | 107° |
| 2026-05-05 16:31 | 34.95920 | -105.45057 | 36798 ft | 556 kts | 107° |
| 2026-05-05 16:32 | 34.94381 | -105.35818 | 36792 ft | 557 kts | 107° |
| 2026-05-05 16:32 | 34.92834 | -105.26574 | 36784 ft | 557 kts | 107° |
| 2026-05-05 16:33 | 34.91279 | -105.17323 | 36771 ft | 558 kts | 107° |
| 2026-05-05 16:33 | 34.89714 | -105.08066 | 36758 ft | 558 kts | 107° |
| 2026-05-05 16:34 | 34.88140 | -104.98795 | 36804 ft | 559 kts | 107° |
| 2026-05-05 16:34 | 34.86558 | -104.89521 | 36859 ft | 560 kts | 107° |
| 2026-05-05 16:35 | 34.84964 | -104.80227 | 36895 ft | 562 kts | 107° |
| 2026-05-05 16:35 | 34.83360 | -104.70917 | 36923 ft | 562 kts | 107° |
| 2026-05-05 16:36 | 34.81749 | -104.61606 | 36919 ft | 563 kts | 107° |
| 2026-05-05 16:36 | 34.80127 | -104.52286 | 36880 ft | 563 kts | 107° |
| 2026-05-05 16:37 | 34.78499 | -104.42967 | 36834 ft | 564 kts | 107° |
| 2026-05-05 16:37 | 34.76872 | -104.33701 | 36776 ft | 564 kts | 106° |
| 2026-05-05 16:38 | 34.75226 | -104.24371 | 36739 ft | 565 kts | 106° |
| 2026-05-05 16:38 | 34.73571 | -104.15039 | 36749 ft | 565 kts | 106° |
| 2026-05-05 16:39 | 34.71907 | -104.05694 | 36756 ft | 566 kts | 106° |
| 2026-05-05 16:39 | 34.70235 | -103.96347 | 36763 ft | 566 kts | 106° |
| 2026-05-05 16:40 | 34.68554 | -103.86997 | 36770 ft | 567 kts | 106° |
| 2026-05-05 16:40 | 34.66864 | -103.77641 | 36777 ft | 567 kts | 106° |
| 2026-05-05 16:41 | 34.65165 | -103.68277 | 36783 ft | 568 kts | 106° |
| 2026-05-05 16:41 | 34.63457 | -103.58910 | 36808 ft | 568 kts | 106° |
| 2026-05-05 16:42 | 34.61742 | -103.49539 | 36850 ft | 569 kts | 106° |
| 2026-05-05 16:42 | 34.60017 | -103.40162 | 36882 ft | 569 kts | 106° |
| 2026-05-05 16:43 | 34.58287 | -103.30785 | 36901 ft | 570 kts | 105° |
| 2026-05-05 16:43 | 34.56557 | -103.21451 | 36934 ft | 573 kts | 105° |
| 2026-05-05 16:44 | 34.54798 | -103.12003 | 36958 ft | 575 kts | 105° |
| 2026-05-05 16:44 | 34.53029 | -103.02545 | 36963 ft | 575 kts | 105° |
| 2026-05-05 16:45 | 34.51253 | -102.93088 | 36949 ft | 576 kts | 105° |
| 2026-05-05 16:45 | 34.49378 | -102.83664 | 36910 ft | 572 kts | 114° |
| 2026-05-05 16:46 | 34.46387 | -102.74774 | 36878 ft | 570 kts | 117° |
| 2026-05-05 16:46 | 34.43365 | -102.65887 | 36850 ft | 571 kts | 117° |
| 2026-05-05 16:47 | 34.40330 | -102.56997 | 36841 ft | 572 kts | 117° |
| 2026-05-05 16:47 | 34.37284 | -102.48104 | 36830 ft | 572 kts | 117° |
| 2026-05-05 16:48 | 34.34229 | -102.39208 | 36824 ft | 573 kts | 117° |
| 2026-05-05 16:48 | 34.31165 | -102.30312 | 36821 ft | 573 kts | 117° |
| 2026-05-05 16:49 | 34.28095 | -102.21422 | 36811 ft | 573 kts | 117° |
| 2026-05-05 16:49 | 34.25017 | -102.12536 | 36809 ft | 573 kts | 117° |
| 2026-05-05 16:50 | 34.21931 | -102.03650 | 36835 ft | 574 kts | 116° |
| 2026-05-05 16:50 | 34.18837 | -101.94768 | 36867 ft | 574 kts | 117° |
| 2026-05-05 16:51 | 34.15736 | -101.85887 | 36902 ft | 574 kts | 116° |
| 2026-05-05 16:51 | 34.12628 | -101.77016 | 36913 ft | 574 kts | 116° |
| 2026-05-05 16:52 | 34.09512 | -101.68142 | 36916 ft | 574 kts | 116° |
| 2026-05-05 16:52 | 34.06389 | -101.59278 | 36888 ft | 574 kts | 116° |
| 2026-05-05 16:53 | 34.03278 | -101.50468 | 36851 ft | 575 kts | 116° |
| 2026-05-05 16:53 | 34.00140 | -101.41609 | 36815 ft | 575 kts | 116° |
| 2026-05-05 16:54 | 33.96994 | -101.32748 | 36784 ft | 575 kts | 116° |
| 2026-05-05 16:54 | 33.93839 | -101.23891 | 36788 ft | 575 kts | 116° |
| 2026-05-05 16:55 | 33.91191 | -101.16475 | 36788 ft | 576 kts | 116° |
| 2026-05-05 16:55 | 33.88019 | -101.07613 | 36786 ft | 576 kts | 116° |
| 2026-05-05 16:56 | 33.84861 | -100.98812 | 36786 ft | 577 kts | 116° |
| 2026-05-05 16:56 | 33.81649 | -100.89889 | 36780 ft | 577 kts | 116° |
| 2026-05-05 16:57 | 33.78473 | -100.81087 | 36776 ft | 578 kts | 116° |
| 2026-05-05 16:57 | 33.75266 | -100.72224 | 36771 ft | 578 kts | 116° |
| 2026-05-05 16:58 | 33.72051 | -100.63365 | 36762 ft | 579 kts | 116° |
| 2026-05-05 16:58 | 33.68826 | -100.54500 | 36761 ft | 579 kts | 116° |
| 2026-05-05 16:59 | 33.65590 | -100.45630 | 36759 ft | 580 kts | 116° |
| 2026-05-05 16:59 | 33.62347 | -100.36766 | 36747 ft | 580 kts | 116° |
| 2026-05-05 17:00 | 33.59099 | -100.27909 | 36741 ft | 581 kts | 115° |
| 2026-05-05 17:00 | 33.55840 | -100.19048 | 36737 ft | 581 kts | 115° |
| 2026-05-05 17:01 | 33.52575 | -100.10194 | 36736 ft | 581 kts | 115° |
| 2026-05-05 17:01 | 33.49299 | -100.01335 | 36731 ft | 582 kts | 115° |
| 2026-05-05 17:02 | 33.46015 | -99.92478 | 36730 ft | 582 kts | 115° |
| 2026-05-05 17:02 | 33.42724 | -99.83626 | 36728 ft | 582 kts | 115° |
| 2026-05-05 17:03 | 33.39427 | -99.74778 | 36720 ft | 582 kts | 115° |
| 2026-05-05 17:03 | 33.36119 | -99.65928 | 36712 ft | 583 kts | 115° |
| 2026-05-05 17:04 | 33.32806 | -99.57088 | 36704 ft | 582 kts | 115° |
| 2026-05-05 17:04 | 33.29489 | -99.48261 | 36701 ft | 582 kts | 115° |
| 2026-05-05 17:05 | 33.26167 | -99.39441 | 36698 ft | 582 kts | 115° |
| 2026-05-05 17:05 | 33.22840 | -99.30635 | 36694 ft | 582 kts | 115° |
| 2026-05-05 17:06 | 33.19509 | -99.21839 | 36698 ft | 581 kts | 115° |
| 2026-05-05 17:06 | 33.16172 | -99.13045 | 36704 ft | 581 kts | 115° |
| 2026-05-05 17:07 | 33.12833 | -99.04267 | 36704 ft | 581 kts | 115° |
| 2026-05-05 17:07 | 33.09489 | -98.95499 | 36708 ft | 581 kts | 115° |
| 2026-05-05 17:08 | 33.06143 | -98.86748 | 36721 ft | 580 kts | 115° |
| 2026-05-05 17:08 | 33.02791 | -98.77994 | 36740 ft | 580 kts | 115° |
| 2026-05-05 17:09 | 32.99455 | -98.69255 | 36745 ft | 579 kts | 115° |
| 2026-05-05 17:09 | 32.96112 | -98.60520 | 36751 ft | 579 kts | 115° |
| 2026-05-05 17:10 | 32.92766 | -98.51798 | 36753 ft | 579 kts | 115° |
| 2026-05-05 17:10 | 32.89419 | -98.43095 | 36739 ft | 579 kts | 115° |
| 2026-05-05 17:11 | 32.86064 | -98.34396 | 36736 ft | 578 kts | 116° |
| 2026-05-05 17:11 | 32.82711 | -98.25721 | 36754 ft | 577 kts | 116° |
| 2026-05-05 17:12 | 32.79354 | -98.17058 | 36777 ft | 577 kts | 116° |
| 2026-05-05 17:12 | 32.76016 | -98.08467 | 36777 ft | 576 kts | 116° |
| 2026-05-05 17:13 | 32.72606 | -97.99789 | 36775 ft | 575 kts | 117° |
| 2026-05-05 17:13 | 32.69088 | -97.91261 | 36764 ft | 575 kts | 117° |
| 2026-05-05 17:14 | 32.65584 | -97.82740 | 36746 ft | 574 kts | 117° |
| 2026-05-05 17:14 | 32.62100 | -97.74284 | 36754 ft | 574 kts | 117° |
| 2026-05-05 17:15 | 32.58566 | -97.65729 | 36751 ft | 573 kts | 117° |
| 2026-05-05 17:15 | 32.55090 | -97.57314 | 36660 ft | 566 kts | 122° |
| 2026-05-05 17:16 | 32.53365 | -97.53160 | 36824 ft | 559 kts | 122° |
| 2026-05-05 17:16 | 32.51652 | -97.49048 | 36785 ft | 555 kts | 122° |
| 2026-05-05 17:16 | 32.48245 | -97.40859 | 36790 ft | 555 kts | 122° |
| 2026-05-05 17:17 | 32.44825 | -97.32660 | 36787 ft | 555 kts | 122° |
| 2026-05-05 17:17 | 32.41401 | -97.24466 | 36785 ft | 555 kts | 122° |
| 2026-05-05 17:18 | 32.37971 | -97.16278 | 36775 ft | 556 kts | 122° |
| 2026-05-05 17:18 | 32.34532 | -97.08088 | 36798 ft | 556 kts | 122° |
| 2026-05-05 17:19 | 32.31092 | -96.99910 | 36800 ft | 556 kts | 122° |
| 2026-05-05 17:19 | 32.27476 | -96.91876 | 36804 ft | 550 kts | 127° |
| 2026-05-05 17:20 | 32.23583 | -96.84078 | 36788 ft | 552 kts | 127° |
| 2026-05-05 17:20 | 32.19726 | -96.76243 | 36786 ft | 552 kts | 126° |
| 2026-05-05 17:21 | 32.15894 | -96.68466 | 36799 ft | 552 kts | 126° |
| 2026-05-05 17:22 | 32.10098 | -96.56737 | 36819 ft | 551 kts | 126° |
| 2026-05-05 17:22 | 32.06231 | -96.48929 | 36830 ft | 551 kts | 126° |
| 2026-05-05 17:23 | 32.02364 | -96.41139 | 36826 ft | 551 kts | 126° |
| 2026-05-05 17:23 | 31.98495 | -96.33361 | 36828 ft | 550 kts | 126° |
| 2026-05-05 17:24 | 31.94619 | -96.25587 | 36829 ft | 550 kts | 126° |
| 2026-05-05 17:24 | 31.90747 | -96.17834 | 36822 ft | 549 kts | 126° |
| 2026-05-05 17:25 | 31.86871 | -96.10092 | 36822 ft | 549 kts | 126° |
| 2026-05-05 17:25 | 31.82989 | -96.02352 | 36838 ft | 549 kts | 126° |
| 2026-05-05 17:26 | 31.79108 | -95.94627 | 36851 ft | 549 kts | 126° |
| 2026-05-05 17:26 | 31.75244 | -95.86956 | 36864 ft | 549 kts | 126° |
| 2026-05-05 17:27 | 31.71349 | -95.79239 | 36873 ft | 549 kts | 126° |
| 2026-05-05 17:27 | 31.67426 | -95.71480 | 36858 ft | 549 kts | 126° |
| 2026-05-05 17:28 | 31.63551 | -95.63833 | 36851 ft | 549 kts | 126° |
| 2026-05-05 17:28 | 31.59646 | -95.56140 | 36855 ft | 549 kts | 126° |
| 2026-05-05 17:29 | 31.55732 | -95.48448 | 36844 ft | 549 kts | 126° |
| 2026-05-05 17:29 | 31.51819 | -95.40771 | 36857 ft | 549 kts | 126° |
| 2026-05-05 17:30 | 31.47900 | -95.33098 | 36859 ft | 549 kts | 126° |
| 2026-05-05 17:30 | 31.43975 | -95.25429 | 36863 ft | 549 kts | 126° |
| 2026-05-05 17:31 | 31.40046 | -95.17768 | 36859 ft | 549 kts | 126° |
| 2026-05-05 17:31 | 31.36112 | -95.10112 | 36853 ft | 549 kts | 126° |
| 2026-05-05 17:32 | 31.32173 | -95.02463 | 36868 ft | 549 kts | 126° |
| 2026-05-05 17:32 | 31.28232 | -94.94823 | 36874 ft | 549 kts | 126° |
| 2026-05-05 17:33 | 31.24288 | -94.87190 | 36883 ft | 548 kts | 126° |
| 2026-05-05 17:33 | 31.20339 | -94.79562 | 36887 ft | 548 kts | 126° |
| 2026-05-05 17:34 | 31.16424 | -94.71916 | 36879 ft | 551 kts | 120° |
| 2026-05-05 17:34 | 31.13262 | -94.63807 | 36885 ft | 553 kts | 117° |
| 2026-05-05 17:35 | 31.10139 | -94.55609 | 36878 ft | 553 kts | 117° |
| 2026-05-05 17:35 | 31.06991 | -94.47351 | 36872 ft | 553 kts | 117° |
| 2026-05-05 17:36 | 31.03885 | -94.39218 | 36871 ft | 553 kts | 117° |
| 2026-05-05 17:36 | 31.00754 | -94.31041 | 36883 ft | 552 kts | 117° |
| 2026-05-05 17:37 | 30.97616 | -94.22865 | 36891 ft | 552 kts | 117° |
| 2026-05-05 17:37 | 30.94477 | -94.14707 | 36899 ft | 552 kts | 117° |
| 2026-05-05 17:38 | 30.91332 | -94.06547 | 36907 ft | 552 kts | 117° |
| 2026-05-05 17:38 | 30.88182 | -93.98397 | 36904 ft | 552 kts | 117° |
| 2026-05-05 17:39 | 30.85030 | -93.90258 | 36902 ft | 552 kts | 117° |
| 2026-05-05 17:39 | 30.81869 | -93.82115 | 36898 ft | 552 kts | 117° |
| 2026-05-05 17:40 | 30.78705 | -93.73984 | 36888 ft | 552 kts | 117° |
| 2026-05-05 17:40 | 30.75537 | -93.65860 | 36888 ft | 552 kts | 117° |
| 2026-05-05 17:41 | 30.72364 | -93.57742 | 36905 ft | 552 kts | 117° |
| 2026-05-05 17:41 | 30.69187 | -93.49629 | 36912 ft | 551 kts | 117° |
| 2026-05-05 17:42 | 30.66005 | -93.41524 | 36915 ft | 551 kts | 117° |
| 2026-05-05 17:42 | 30.62818 | -93.33427 | 36911 ft | 551 kts | 117° |
| 2026-05-05 17:43 | 30.60167 | -93.26702 | 36907 ft | 551 kts | 117° |
| 2026-05-05 17:43 | 30.56973 | -93.18617 | 36901 ft | 551 kts | 117° |
| 2026-05-05 17:44 | 30.53776 | -93.10544 | 36909 ft | 551 kts | 117° |
| 2026-05-05 17:44 | 30.50576 | -93.02478 | 36913 ft | 550 kts | 117° |
| 2026-05-05 17:45 | 30.47371 | -92.94421 | 36915 ft | 550 kts | 117° |
| 2026-05-05 17:45 | 30.44160 | -92.86366 | 36920 ft | 550 kts | 117° |
| 2026-05-05 17:46 | 30.40948 | -92.78324 | 36917 ft | 550 kts | 117° |
| 2026-05-05 17:46 | 30.37734 | -92.70294 | 36925 ft | 550 kts | 117° |
| 2026-05-05 17:47 | 30.34512 | -92.62266 | 36929 ft | 549 kts | 117° |
| 2026-05-05 17:47 | 30.31289 | -92.54249 | 36920 ft | 549 kts | 117° |
| 2026-05-05 17:48 | 30.28060 | -92.46237 | 36931 ft | 549 kts | 117° |
| 2026-05-05 17:48 | 30.24831 | -92.38236 | 36931 ft | 549 kts | 117° |
| 2026-05-05 17:49 | 30.21620 | -92.30296 | 36944 ft | 549 kts | 117° |
| 2026-05-05 17:49 | 30.18337 | -92.22341 | 36949 ft | 547 kts | 122° |
| 2026-05-05 17:50 | 30.14695 | -92.14632 | 36956 ft | 547 kts | 121° |
| 2026-05-05 17:50 | 30.11095 | -92.06886 | 36957 ft | 547 kts | 121° |
| 2026-05-05 17:51 | 30.07498 | -91.99148 | 36971 ft | 547 kts | 121° |
| 2026-05-05 17:51 | 30.03896 | -91.91417 | 36965 ft | 546 kts | 121° |
| 2026-05-05 17:52 | 30.00293 | -91.83697 | 36967 ft | 546 kts | 121° |
| 2026-05-05 17:52 | 29.96688 | -91.75991 | 36970 ft | 546 kts | 121° |
| 2026-05-05 17:53 | 29.93080 | -91.68291 | 36964 ft | 546 kts | 121° |
| 2026-05-05 17:53 | 29.89467 | -91.60595 | 36967 ft | 545 kts | 121° |
| 2026-05-05 17:54 | 29.85852 | -91.52909 | 36983 ft | 545 kts | 121° |
| 2026-05-05 17:54 | 29.82236 | -91.45239 | 36991 ft | 545 kts | 121° |
| 2026-05-05 17:55 | 29.78613 | -91.37567 | 36991 ft | 545 kts | 121° |
| 2026-05-05 17:55 | 29.74989 | -91.29908 | 37006 ft | 545 kts | 121° |
| 2026-05-05 17:56 | 29.71364 | -91.22263 | 36996 ft | 544 kts | 121° |
| 2026-05-05 17:56 | 29.67733 | -91.14620 | 36994 ft | 544 kts | 121° |
| 2026-05-05 17:57 | 29.64128 | -91.07046 | 36986 ft | 544 kts | 121° |
| 2026-05-05 17:57 | 29.60495 | -90.99426 | 36984 ft | 543 kts | 121° |
| 2026-05-05 17:58 | 29.56861 | -90.91821 | 36995 ft | 543 kts | 121° |
| 2026-05-05 17:58 | 29.53222 | -90.84217 | 37005 ft | 543 kts | 121° |
| 2026-05-05 17:59 | 29.49576 | -90.76616 | 37006 ft | 543 kts | 121° |
| 2026-05-05 17:59 | 29.45931 | -90.69032 | 37005 ft | 543 kts | 121° |
| 2026-05-05 18:00 | 29.42284 | -90.61455 | 37001 ft | 542 kts | 121° |
| 2026-05-05 18:00 | 29.38632 | -90.53885 | 36999 ft | 542 kts | 121° |
| 2026-05-05 18:01 | 29.34979 | -90.46325 | 37014 ft | 542 kts | 121° |
| 2026-05-05 18:01 | 29.31327 | -90.38783 | 37020 ft | 541 kts | 121° |
| 2026-05-05 18:02 | 29.27672 | -90.31248 | 37019 ft | 541 kts | 121° |
| 2026-05-05 18:02 | 29.24018 | -90.23726 | 37012 ft | 540 kts | 121° |
| 2026-05-05 18:03 | 29.20363 | -90.16215 | 37002 ft | 540 kts | 121° |
| 2026-05-05 18:03 | 29.16888 | -90.08604 | 37008 ft | 541 kts | 114° |
| 2026-05-05 18:04 | 29.13907 | -90.00703 | 37015 ft | 541 kts | 114° |
| 2026-05-05 18:04 | 29.10950 | -89.92800 | 37008 ft | 540 kts | 114° |
| 2026-05-05 18:05 | 29.07991 | -89.84906 | 37011 ft | 540 kts | 114° |
| 2026-05-05 18:05 | 29.05026 | -89.77013 | 37013 ft | 540 kts | 114° |
| 2026-05-05 18:06 | 29.02056 | -89.69122 | 37013 ft | 541 kts | 114° |
| 2026-05-05 18:06 | 28.99082 | -89.61234 | 37018 ft | 541 kts | 114° |
| 2026-05-05 18:07 | 28.96102 | -89.53351 | 37018 ft | 541 kts | 114° |
| 2026-05-05 18:07 | 28.93113 | -89.45460 | 37020 ft | 541 kts | 114° |
| 2026-05-05 18:08 | 28.90120 | -89.37573 | 37017 ft | 542 kts | 114° |
| 2026-05-05 18:08 | 28.87122 | -89.29689 | 37021 ft | 542 kts | 114° |
| 2026-05-05 18:09 | 28.84134 | -89.21853 | 37025 ft | 542 kts | 114° |
| 2026-05-05 18:09 | 28.81120 | -89.13961 | 37025 ft | 543 kts | 114° |
| 2026-05-05 18:10 | 28.78101 | -89.06076 | 37025 ft | 543 kts | 114° |
| 2026-05-05 18:10 | 28.75079 | -88.98195 | 37028 ft | 543 kts | 114° |
| 2026-05-05 18:11 | 28.72051 | -88.90318 | 37029 ft | 543 kts | 114° |
| 2026-05-05 18:11 | 28.69018 | -88.82445 | 37034 ft | 543 kts | 114° |
| 2026-05-05 18:12 | 28.65980 | -88.74573 | 37038 ft | 543 kts | 114° |
| 2026-05-05 18:12 | 28.62936 | -88.66704 | 37041 ft | 543 kts | 114° |
| 2026-05-05 18:13 | 28.59888 | -88.58839 | 37039 ft | 543 kts | 114° |
| 2026-05-05 18:13 | 28.56835 | -88.50978 | 37040 ft | 543 kts | 114° |
| 2026-05-05 18:14 | 28.53777 | -88.43120 | 37043 ft | 543 kts | 114° |
| 2026-05-05 18:14 | 28.50714 | -88.35268 | 37042 ft | 543 kts | 114° |
| 2026-05-05 18:15 | 28.47648 | -88.27420 | 37047 ft | 543 kts | 114° |
| 2026-05-05 18:15 | 28.44597 | -88.19629 | 37046 ft | 543 kts | 114° |
| 2026-05-05 18:16 | 28.41525 | -88.11796 | 37043 ft | 543 kts | 114° |
| 2026-05-05 18:16 | 28.38473 | -88.03951 | 37040 ft | 543 kts | 110° |
| 2026-05-05 18:17 | 28.36054 | -87.95845 | 37047 ft | 542 kts | 107° |
| 2026-05-05 18:17 | 28.33704 | -87.87714 | 37043 ft | 542 kts | 107° |
| 2026-05-05 18:18 | 28.31354 | -87.79585 | 37043 ft | 542 kts | 107° |
| 2026-05-05 18:18 | 28.28997 | -87.71454 | 37050 ft | 542 kts | 107° |
| 2026-05-05 18:19 | 28.26636 | -87.63327 | 37046 ft | 542 kts | 107° |
| 2026-05-05 18:19 | 28.24269 | -87.55203 | 37048 ft | 542 kts | 107° |
| 2026-05-05 18:20 | 28.21899 | -87.47087 | 37049 ft | 543 kts | 107° |
| 2026-05-05 18:20 | 28.19523 | -87.38970 | 37045 ft | 543 kts | 107° |
| 2026-05-05 18:21 | 28.17140 | -87.30850 | 37044 ft | 542 kts | 107° |
| 2026-05-05 18:21 | 28.14756 | -87.22747 | 37046 ft | 542 kts | 107° |
| 2026-05-05 18:22 | 28.12367 | -87.14643 | 37041 ft | 542 kts | 107° |
| 2026-05-05 18:22 | 28.09989 | -87.06599 | 37046 ft | 542 kts | 107° |
| 2026-05-05 18:23 | 28.07591 | -86.98509 | 37045 ft | 542 kts | 107° |
| 2026-05-05 18:23 | 28.05190 | -86.90426 | 37045 ft | 542 kts | 107° |
| 2026-05-05 18:24 | 28.02787 | -86.82349 | 37044 ft | 542 kts | 107° |
| 2026-05-05 18:24 | 28.00411 | -86.74264 | 37050 ft | 541 kts | 106° |
| 2026-05-05 18:25 | 27.98076 | -86.66172 | 37052 ft | 541 kts | 107° |
| 2026-05-05 18:25 | 27.95731 | -86.58077 | 37052 ft | 541 kts | 107° |
| 2026-05-05 18:26 | 27.93383 | -86.49994 | 37051 ft | 541 kts | 107° |
| 2026-05-05 18:26 | 27.91028 | -86.41909 | 37048 ft | 541 kts | 107° |
| 2026-05-05 18:27 | 27.88669 | -86.33828 | 37052 ft | 541 kts | 107° |
| 2026-05-05 18:27 | 27.86307 | -86.25759 | 37052 ft | 541 kts | 107° |
| 2026-05-05 18:28 | 27.82756 | -86.13660 | 37052 ft | 541 kts | 107° |
| 2026-05-05 18:28 | 27.80384 | -86.05603 | 37053 ft | 540 kts | 107° |
| 2026-05-05 18:29 | 27.78007 | -85.97551 | 37053 ft | 540 kts | 107° |
| 2026-05-05 18:29 | 27.75629 | -85.89514 | 37053 ft | 540 kts | 107° |
| 2026-05-05 18:30 | 27.73247 | -85.81482 | 37054 ft | 539 kts | 107° |
| 2026-05-05 18:30 | 27.70876 | -85.73506 | 37055 ft | 539 kts | 107° |
| 2026-05-05 18:31 | 27.68472 | -85.65436 | 37058 ft | 539 kts | 107° |
| 2026-05-05 18:31 | 27.66095 | -85.57475 | 37054 ft | 539 kts | 107° |
| 2026-05-05 18:32 | 27.63699 | -85.49475 | 37058 ft | 539 kts | 107° |
| 2026-05-05 18:32 | 27.61299 | -85.41472 | 37060 ft | 538 kts | 107° |
| 2026-05-05 18:33 | 27.59039 | -85.33441 | 37048 ft | 535 kts | 98° |
| 2026-05-05 18:33 | 27.57589 | -85.25224 | 37061 ft | 535 kts | 98° |
| 2026-05-05 18:34 | 27.56387 | -85.18334 | 37058 ft | 535 kts | 98° |
| 2026-05-05 18:34 | 27.54951 | -85.10112 | 37060 ft | 535 kts | 98° |
| 2026-05-05 18:35 | 27.53511 | -85.01895 | 37057 ft | 534 kts | 98° |
| 2026-05-05 18:35 | 27.52076 | -84.93737 | 37061 ft | 534 kts | 98° |
| 2026-05-05 18:36 | 27.50628 | -84.85532 | 37058 ft | 534 kts | 98° |
| 2026-05-05 18:36 | 27.49175 | -84.77330 | 37061 ft | 534 kts | 98° |
| 2026-05-05 18:37 | 27.47717 | -84.69132 | 37056 ft | 534 kts | 98° |
| 2026-05-05 18:37 | 27.46255 | -84.60943 | 37056 ft | 533 kts | 98° |
| 2026-05-05 18:38 | 27.44789 | -84.52756 | 37057 ft | 533 kts | 98° |
| 2026-05-05 18:38 | 27.43319 | -84.44575 | 37057 ft | 533 kts | 98° |
| 2026-05-05 18:39 | 27.42141 | -84.36376 | 37052 ft | 525 kts | 86° |
| 2026-05-05 18:39 | 27.41938 | -84.28151 | 37054 ft | 527 kts | 87° |
| 2026-05-05 18:40 | 27.41709 | -84.19913 | 37063 ft | 527 kts | 87° |
| 2026-05-05 18:40 | 27.41478 | -84.11670 | 37059 ft | 527 kts | 86° |
| 2026-05-05 18:41 | 27.41243 | -84.03434 | 37061 ft | 527 kts | 87° |
| 2026-05-05 18:41 | 27.41002 | -83.95188 | 37059 ft | 527 kts | 87° |
| 2026-05-05 18:42 | 27.40757 | -83.86946 | 37063 ft | 527 kts | 87° |
| 2026-05-05 18:42 | 27.40507 | -83.78702 | 37062 ft | 527 kts | 87° |
| 2026-05-05 18:43 | 27.40252 | -83.70451 | 37063 ft | 528 kts | 87° |
| 2026-05-05 18:43 | 27.39991 | -83.62195 | 37061 ft | 528 kts | 87° |
| 2026-05-05 18:44 | 27.39726 | -83.53938 | 37057 ft | 528 kts | 87° |
| 2026-05-05 18:44 | 27.39456 | -83.45685 | 37062 ft | 528 kts | 87° |
| 2026-05-05 18:45 | 27.39181 | -83.37438 | 37056 ft | 527 kts | 87° |
| 2026-05-05 18:45 | 27.38902 | -83.29195 | 37058 ft | 527 kts | 87° |
| 2026-05-05 18:46 | 27.38619 | -83.20950 | 37056 ft | 527 kts | 87° |
| 2026-05-05 18:46 | 27.38073 | -83.12716 | 37044 ft | 533 kts | 100° |
| 2026-05-05 18:47 | 27.36004 | -83.04669 | 37046 ft | 536 kts | 103° |
| 2026-05-05 18:47 | 27.34950 | -83.00641 | 36941 ft | 538 kts | 103° |
| 2026-05-05 18:47 | 27.33887 | -82.96640 | 36465 ft | 531 kts | 103° |
| 2026-05-05 18:48 | 27.32826 | -82.92662 | 35684 ft | 533 kts | 103° |
| 2026-05-05 18:48 | 27.31757 | -82.88658 | 34806 ft | 537 kts | 104° |
| 2026-05-05 18:48 | 27.30700 | -82.84701 | 34223 ft | 534 kts | 104° |
| 2026-05-05 18:48 | 27.29628 | -82.80698 | 33277 ft | 537 kts | 104° |
| 2026-05-05 18:49 | 27.28291 | -82.76773 | 32565 ft | 537 kts | 115° |
| 2026-05-05 18:49 | 27.26646 | -82.73041 | 32429 ft | 533 kts | 115° |
| 2026-05-05 18:49 | 27.23359 | -82.65519 | 32208 ft | 536 kts | 115° |
| 2026-05-05 18:50 | 27.21704 | -82.61769 | 31896 ft | 535 kts | 115° |
| 2026-05-05 18:50 | 27.20048 | -82.58022 | 31596 ft | 535 kts | 115° |
| 2026-05-05 18:50 | 27.18391 | -82.54274 | 31351 ft | 536 kts | 115° |
| 2026-05-05 18:50 | 27.16734 | -82.50530 | 31107 ft | 536 kts | 115° |
| 2026-05-05 18:51 | 27.15074 | -82.46782 | 30850 ft | 536 kts | 116° |
| 2026-05-05 18:51 | 27.13413 | -82.43037 | 30593 ft | 536 kts | 116° |
| 2026-05-05 18:51 | 27.11751 | -82.39293 | 30337 ft | 536 kts | 116° |
| 2026-05-05 18:51 | 27.10089 | -82.35551 | 30076 ft | 536 kts | 116° |
| 2026-05-05 18:52 | 27.08424 | -82.31804 | 29778 ft | 536 kts | 116° |
| 2026-05-05 18:52 | 27.06758 | -82.28061 | 29523 ft | 537 kts | 116° |
| 2026-05-05 18:52 | 27.05090 | -82.24316 | 29282 ft | 537 kts | 116° |
| 2026-05-05 18:52 | 27.03418 | -82.20565 | 29031 ft | 537 kts | 116° |
| 2026-05-05 18:53 | 27.01747 | -82.16820 | 28782 ft | 537 kts | 116° |
| 2026-05-05 18:53 | 27.00074 | -82.13074 | 28523 ft | 538 kts | 116° |
| 2026-05-05 18:53 | 26.98400 | -82.09326 | 28260 ft | 538 kts | 116° |
| 2026-05-05 18:53 | 26.96674 | -82.05662 | 27999 ft | 524 kts | 123° |
| 2026-05-05 18:54 | 26.94440 | -82.02513 | 27750 ft | 509 kts | 134° |
| 2026-05-05 18:54 | 26.92087 | -81.99613 | 27527 ft | 497 kts | 134° |
| 2026-05-05 18:54 | 26.89768 | -81.96804 | 27299 ft | 485 kts | 134° |
| 2026-05-05 18:54 | 26.87485 | -81.94076 | 27055 ft | 476 kts | 135° |
| 2026-05-05 18:55 | 26.85207 | -81.91379 | 26816 ft | 476 kts | 135° |
| 2026-05-05 18:55 | 26.82931 | -81.88691 | 26590 ft | 475 kts | 135° |
| 2026-05-05 18:55 | 26.80662 | -81.86014 | 26360 ft | 473 kts | 135° |
| 2026-05-05 18:55 | 26.78434 | -81.83387 | 26142 ft | 471 kts | 135° |
| 2026-05-05 18:56 | 26.76174 | -81.80745 | 25736 ft | 468 kts | 135° |
| 2026-05-05 18:56 | 26.73925 | -81.78129 | 25295 ft | 465 kts | 135° |
| 2026-05-05 18:56 | 26.71696 | -81.75533 | 24871 ft | 461 kts | 135° |
| 2026-05-05 18:56 | 26.69483 | -81.72958 | 24441 ft | 457 kts | 136° |
| 2026-05-05 18:57 | 26.67284 | -81.70400 | 24004 ft | 455 kts | 136° |
| 2026-05-05 18:57 | 26.65101 | -81.67862 | 23562 ft | 452 kts | 136° |
| 2026-05-05 18:57 | 26.63123 | -81.65500 | 23025 ft | 451 kts | 131° |
| 2026-05-05 18:57 | 26.61215 | -81.62715 | 22411 ft | 452 kts | 128° |
| 2026-05-05 18:58 | 26.59330 | -81.59918 | 21950 ft | 448 kts | 128° |
| 2026-05-05 18:58 | 26.57464 | -81.57146 | 21467 ft | 445 kts | 128° |
| 2026-05-05 18:58 | 26.55610 | -81.54393 | 20981 ft | 442 kts | 128° |
| 2026-05-05 18:58 | 26.53769 | -81.51659 | 20495 ft | 440 kts | 128° |
| 2026-05-05 18:59 | 26.51929 | -81.48926 | 20017 ft | 438 kts | 128° |
| 2026-05-05 18:59 | 26.50099 | -81.46212 | 19533 ft | 436 kts | 128° |
| 2026-05-05 18:59 | 26.48278 | -81.43513 | 19047 ft | 435 kts | 127° |
| 2026-05-05 18:59 | 26.46463 | -81.40824 | 18573 ft | 433 kts | 127° |
| 2026-05-05 19:00 | 26.44653 | -81.38143 | 18053 ft | 432 kts | 127° |
| 2026-05-05 19:00 | 26.42848 | -81.35473 | 17547 ft | 429 kts | 128° |
| 2026-05-05 19:00 | 26.41027 | -81.32851 | 17019 ft | 426 kts | 130° |
| 2026-05-05 19:00 | 26.39128 | -81.30327 | 16531 ft | 424 kts | 131° |
| 2026-05-05 19:01 | 26.37249 | -81.27811 | 16048 ft | 421 kts | 131° |
| 2026-05-05 19:01 | 26.35385 | -81.25307 | 15576 ft | 418 kts | 131° |
| 2026-05-05 19:01 | 26.33537 | -81.22823 | 15121 ft | 415 kts | 131° |
| 2026-05-05 19:01 | 26.31706 | -81.20362 | 14674 ft | 408 kts | 131° |
| 2026-05-05 19:02 | 26.29928 | -81.17973 | 14232 ft | 393 kts | 131° |
| 2026-05-05 19:02 | 26.28201 | -81.15678 | 13778 ft | 380 kts | 132° |
| 2026-05-05 19:02 | 26.26517 | -81.13464 | 13316 ft | 368 kts | 132° |
| 2026-05-05 19:02 | 26.24899 | -81.11334 | 12921 ft | 360 kts | 132° |
| 2026-05-05 19:03 | 26.23311 | -81.09243 | 12527 ft | 348 kts | 132° |
| 2026-05-05 19:03 | 26.21774 | -81.07221 | 12174 ft | 335 kts | 132° |
| 2026-05-05 19:03 | 26.20291 | -81.05269 | 11795 ft | 325 kts | 132° |
| 2026-05-05 19:03 | 26.18842 | -81.03364 | 11456 ft | 321 kts | 132° |
| 2026-05-05 19:04 | 26.17411 | -81.01482 | 11245 ft | 316 kts | 132° |
| 2026-05-05 19:04 | 26.16008 | -80.99639 | 11067 ft | 308 kts | 132° |
| 2026-05-05 19:04 | 26.14827 | -80.97651 | 10639 ft | 313 kts | 112° |
| 2026-05-05 19:04 | 26.14304 | -80.95280 | 10170 ft | 319 kts | 101° |
| 2026-05-05 19:05 | 26.13885 | -80.92845 | 9673 ft | 320 kts | 101° |
| 2026-05-05 19:05 | 26.13475 | -80.90433 | 9168 ft | 314 kts | 101° |
| 2026-05-05 19:05 | 26.13077 | -80.88066 | 8684 ft | 308 kts | 101° |
| 2026-05-05 19:05 | 26.12690 | -80.85749 | 8225 ft | 302 kts | 101° |
| 2026-05-05 19:06 | 26.12312 | -80.83479 | 7772 ft | 296 kts | 100° |
| 2026-05-05 19:06 | 26.11940 | -80.81248 | 7327 ft | 290 kts | 100° |
| 2026-05-05 19:06 | 26.11594 | -80.79062 | 6990 ft | 281 kts | 98° |
| 2026-05-05 19:06 | 26.11307 | -80.76954 | 6826 ft | 274 kts | 98° |
| 2026-05-05 19:07 | 26.11020 | -80.74862 | 6667 ft | 273 kts | 98° |
| 2026-05-05 19:07 | 26.10732 | -80.72780 | 6517 ft | 272 kts | 98° |
| 2026-05-05 19:07 | 26.10444 | -80.70705 | 6364 ft | 271 kts | 98° |
| 2026-05-05 19:07 | 26.10157 | -80.68639 | 6211 ft | 270 kts | 98° |
| 2026-05-05 19:08 | 26.09869 | -80.66577 | 6065 ft | 270 kts | 98° |
| 2026-05-05 19:08 | 26.09581 | -80.64518 | 5915 ft | 269 kts | 98° |
| 2026-05-05 19:08 | 26.09293 | -80.62462 | 5773 ft | 269 kts | 98° |
| 2026-05-05 19:08 | 26.09006 | -80.60409 | 5629 ft | 268 kts | 98° |
| 2026-05-05 19:09 | 26.08718 | -80.58360 | 5482 ft | 268 kts | 98° |
| 2026-05-05 19:09 | 26.08434 | -80.56338 | 5343 ft | 261 kts | 98° |
| 2026-05-05 19:09 | 26.08178 | -80.54371 | 5210 ft | 253 kts | 96° |
| 2026-05-05 19:09 | 26.08021 | -80.52452 | 5089 ft | 245 kts | 93° |
| 2026-05-05 19:10 | 26.07938 | -80.50606 | 5052 ft | 233 kts | 91° |
| 2026-05-05 19:10 | 26.07894 | -80.48812 | 5027 ft | 232 kts | 90° |
| 2026-05-05 19:10 | 26.07870 | -80.47020 | 5002 ft | 232 kts | 90° |
| 2026-05-05 19:10 | 26.07853 | -80.45220 | 4830 ft | 234 kts | 90° |
| 2026-05-05 19:11 | 26.07839 | -80.43408 | 4542 ft | 235 kts | 90° |
| 2026-05-05 19:11 | 26.07828 | -80.41586 | 4238 ft | 235 kts | 90° |
| 2026-05-05 19:11 | 26.07817 | -80.39767 | 3980 ft | 234 kts | 90° |
| 2026-05-05 19:11 | 26.07808 | -80.37954 | 3684 ft | 235 kts | 90° |
| 2026-05-05 19:12 | 26.07798 | -80.36156 | 3417 ft | 230 kts | 90° |
| 2026-05-05 19:12 | 26.07789 | -80.34397 | 3088 ft | 226 kts | 90° |
| 2026-05-05 19:12 | 26.07780 | -80.32667 | 2780 ft | 221 kts | 89° |
| 2026-05-05 19:12 | 26.07771 | -80.30975 | 2480 ft | 216 kts | 89° |
| 2026-05-05 19:13 | 26.07762 | -80.29344 | 2207 ft | 211 kts | 90° |
| 2026-05-05 19:13 | 26.07753 | -80.27767 | 1935 ft | 197 kts | 90° |
| 2026-05-05 19:13 | 26.07747 | -80.26320 | 1707 ft | 179 kts | 89° |
| 2026-05-05 19:13 | 26.07739 | -80.25011 | 1510 ft | 160 kts | 88° |
| 2026-05-05 19:14 | 26.07734 | -80.23818 | 1287 ft | 147 kts | 88° |
| 2026-05-05 19:14 | 26.07728 | -80.22695 | 1102 ft | 145 kts | 89° |
| 2026-05-05 19:14 | 26.07723 | -80.21579 | 928 ft | 147 kts | 89° |
| 2026-05-05 19:14 | 26.07716 | -80.20404 | 726 ft | 151 kts | 88° |
| 2026-05-05 19:15 | 26.07712 | -80.19264 | 508 ft | 143 kts | 89° |
| 2026-05-05 19:15 | 26.07705 | -80.18206 | 365 ft | 138 kts | 91° |
| 2026-05-05 19:15 | 26.07696 | -80.17115 | 214 ft | 143 kts | 88° |
| 2026-05-05 19:15 | 26.07695 | -80.16001 | 31 ft | 143 kts | 88° |
| 2026-05-05 19:16 | 26.07687 | -80.15058 | 18 ft | 88 kts | 90° |
| 2026-05-05 19:16 | 26.07683 | -80.14616 | 21 ft | 40 kts | 91° |
| 2026-05-05 19:16 | 26.07605 | -80.14361 | 21 ft | 18 kts | 124° |
| 2026-05-05 19:16 | 26.07546 | -80.14356 | 21 ft | 8 kts | 251° |
| 2026-05-05 19:17 | 26.07556 | -80.14441 | 19 ft | 15 kts | 278° |
| 2026-05-05 19:17 | 26.07490 | -80.14533 | 19 ft | 18 kts | 222° |
| 2026-05-05 19:17 | 26.07376 | -80.14583 | 18 ft | 17 kts | 207° |
| 2026-05-05 19:17 | 26.07348 | -80.14599 | 18 ft | 0 kts | 206° |